LFSB METAR :   2017/03/24 13:30 LFSB 241330Z 36009G21KT 330V040 9999 FEW016 BKN023 12/08 Q1022 NOSIG

TAF  2017/03/24 12:21 TAF LFSB 241100Z 2412/2512 35008KT 9999 BKN020 BKN200 PROB30 TEMPO 2412/2413 BKN013 BECMG 2423/2502 2500 BR BKN007 TEMPO 2500/2508 BKN003 PROB30 TEMPO 2502/2505 0800 FG OVC002 BECMG 2508/2510 8000 NSW SCT010 BKN023